Time;durP1;ratioP1;P1;durP2;ratioP2;P2;SDS_P1;SDS_P2;PMS_P1;PMS_P2;Temp;Humidity;BMP_temperature;BMP_pressure;BME280_temperature;BME280_humidity;BME280_pressure;Samples;Min_cycle;Max_cycle;Signal;HPM_P1;HPM_P2
2023/07/26 00:02:16;;;;;;;5.55;2.40;;;15.80;99.90;;;;;;5059359;28;20078;-84
2023/07/26 00:04:42;;;;;;;3.92;2.15;;;15.90;99.90;;;;;;5058145;28;20044;-85
2023/07/26 00:07:08;;;;;;;4.53;2.40;;;15.80;99.90;;;;;;5076853;28;20111;-86
2023/07/26 00:09:33;;;;;;;4.03;2.17;;;15.90;99.90;;;;;;5076186;28;20028;-84
2023/07/26 00:11:59;;;;;;;3.85;2.30;;;15.90;99.90;;;;;;5059004;28;20519;-85
2023/07/26 00:14:24;;;;;;;4.97;2.50;;;15.90;99.90;;;;;;5059044;28;20490;-86
2023/07/26 00:16:50;;;;;;;4.93;2.58;;;15.80;99.90;;;;;;5058893;28;20035;-86
2023/07/26 00:19:19;;;;;;;8.88;3.17;;;15.80;99.90;;;;;;5059017;28;20021;-87
2023/07/26 00:21:47;;;;;;;5.65;2.75;;;15.80;99.90;;;;;;5076300;28;20527;-85
2023/07/26 00:24:13;;;;;;;5.18;3.13;;;15.80;99.90;;;;;;5058232;28;20029;-85
2023/07/26 00:26:39;;;;;;;4.57;2.88;;;15.80;99.90;;;;;;5075843;28;20036;-86
2023/07/26 00:29:04;;;;;;;7.72;3.35;;;15.80;99.90;;;;;;5058314;28;20028;-86
2023/07/26 00:31:30;;;;;;;5.32;2.80;;;15.80;99.90;;;;;;5058236;28;20031;-86
2023/07/26 00:33:55;;;;;;;4.88;3.13;;;15.80;99.90;;;;;;5057370;28;20358;-85
2023/07/26 00:36:21;;;;;;;4.97;3.20;;;15.70;99.90;;;;;;5058100;28;20029;-86
2023/07/26 00:38:47;;;;;;;13.82;3.70;;;15.70;99.90;;;;;;5057721;28;20021;-85
2023/07/26 00:41:12;;;;;;;5.60;3.08;;;15.70;99.90;;;;;;5076387;28;20082;-86
2023/07/26 00:43:38;;;;;;;4.53;3.50;;;15.70;99.90;;;;;;5075281;28;20111;-85
2023/07/26 00:46:06;;;;;;;4.35;3.03;;;15.70;99.90;;;;;;5075982;28;20037;-86
2023/07/26 00:48:34;;;;;;;6.15;3.20;;;15.70;99.90;;;;;;5058227;28;20024;-84
2023/07/26 00:51:01;;;;;;;7.30;4.32;;;15.70;99.90;;;;;;5075852;28;20028;-85
2023/07/26 00:53:27;;;;;;;7.93;4.95;;;15.70;99.90;;;;;;5058052;28;20119;-87
2023/07/26 00:55:54;;;;;;;7.90;5.40;;;15.70;99.90;;;;;;5075509;28;20183;-87
2023/07/26 00:58:20;;;;;;;13.20;6.22;;;15.70;99.90;;;;;;5057937;28;20056;-87
2023/07/26 01:00:47;;;;;;;11.43;6.53;;;15.70;99.90;;;;;;5075506;28;20028;-87
2023/07/26 01:03:13;;;;;;;11.98;6.00;;;15.70;99.90;;;;;;5075671;28;20075;-88
2023/07/26 01:05:48;;;;;;;10.07;6.82;;;15.70;99.90;;;;;;5073644;28;20124;-86
2023/07/26 01:08:28;;;;;;;13.00;6.82;;;15.60;99.90;;;;;;5057419;28;20032;-87
2023/07/26 01:10:58;;;;;;;10.23;6.70;;;15.70;99.90;;;;;;5057046;28;20024;-88
2023/07/26 01:13:45;;;;;;;9.85;5.88;;;15.70;99.90;;;;;;5057678;28;20028;-87
2023/07/26 01:16:12;;;;;;;7.78;5.68;;;15.70;99.90;;;;;;5075500;28;20104;-87
2023/07/26 01:18:37;;;;;;;16.10;6.18;;;15.70;99.90;;;;;;5074902;28;20035;-86
2023/07/26 01:21:03;;;;;;;7.65;5.22;;;15.70;99.90;;;;;;5075281;28;20028;-87
2023/07/26 01:23:29;;;;;;;8.63;5.32;;;15.70;99.90;;;;;;5057279;28;20078;-87
2023/07/26 01:25:54;;;;;;;10.82;5.18;;;15.70;99.90;;;;;;5074804;28;20606;-87
2023/07/26 01:28:20;;;;;;;6.93;4.65;;;15.70;99.90;;;;;;5057359;28;20020;-87
2023/07/26 01:30:47;;;;;;;8.30;4.05;;;15.70;99.90;;;;;;5057200;28;20028;-87
2023/07/26 01:33:14;;;;;;;6.70;4.30;;;15.70;99.90;;;;;;5073665;28;20092;-87
2023/07/26 01:35:40;;;;;;;8.88;4.20;;;15.60;99.90;;;;;;5057056;28;20028;-86
2023/07/26 01:38:07;;;;;;;9.23;4.38;;;15.60;99.90;;;;;;5074805;28;20024;-85
2023/07/26 01:40:33;;;;;;;6.70;3.30;;;15.50;99.90;;;;;;5057158;28;20028;-85
2023/07/26 01:42:59;;;;;;;4.55;3.53;;;15.60;99.90;;;;;;5056540;28;20028;-85
2023/07/26 01:45:25;;;;;;;4.22;3.20;;;15.40;99.90;;;;;;5057113;28;20033;-85
2023/07/26 01:47:52;;;;;;;5.38;3.38;;;15.40;99.90;;;;;;5074178;28;20029;-85
2023/07/26 01:50:18;;;;;;;6.50;3.45;;;15.40;99.90;;;;;;5074741;28;20024;-85
2023/07/26 01:52:44;;;;;;;6.10;3.15;;;15.30;99.90;;;;;;5056621;28;20025;-85
2023/07/26 01:55:09;;;;;;;5.47;3.17;;;15.30;99.90;;;;;;5074988;28;20028;-85
2023/07/26 01:57:35;;;;;;;4.72;2.92;;;15.30;99.90;;;;;;5057261;28;20052;-85
2023/07/26 02:00:00;;;;;;;5.72;3.13;;;15.30;99.90;;;;;;5056647;28;20036;-85
2023/07/26 02:02:26;;;;;;;5.30;3.53;;;15.30;99.90;;;;;;5074462;28;20089;-86
2023/07/26 02:04:52;;;;;;;5.57;3.03;;;15.30;99.90;;;;;;5052638;28;20087;-82
2023/07/26 02:07:17;;;;;;;5.22;3.45;;;15.30;99.90;;;;;;5053373;28;20033;-82
2023/07/26 02:09:43;;;;;;;6.07;3.40;;;15.20;99.90;;;;;;5053715;28;20029;-84
2023/07/26 02:12:09;;;;;;;7.28;3.50;;;15.20;99.90;;;;;;5053369;28;20025;-85
2023/07/26 02:14:34;;;;;;;6.75;3.50;;;15.20;99.90;;;;;;5053270;28;20025;-84
2023/07/26 02:17:00;;;;;;;6.30;3.40;;;15.10;99.90;;;;;;5052952;28;20102;-84
2023/07/26 02:19:26;;;;;;;8.77;3.92;;;15.20;99.90;;;;;;5054607;28;20327;-85
2023/07/26 02:21:51;;;;;;;6.93;3.72;;;15.10;99.90;;;;;;5052594;28;20032;-84
2023/07/26 02:24:17;;;;;;;5.20;3.97;;;15.10;99.90;;;;;;5054416;28;20527;-85
2023/07/26 02:26:42;;;;;;;7.88;3.53;;;15.10;99.90;;;;;;5052584;28;20036;-83
2023/07/26 02:29:08;;;;;;;7.35;3.58;;;15.20;99.90;;;;;;5053933;28;20029;-84
2023/07/26 02:31:33;;;;;;;8.82;3.70;;;15.10;99.90;;;;;;5052938;28;20027;-85
2023/07/26 02:33:59;;;;;;;6.78;3.90;;;15.10;99.90;;;;;;5053421;28;20037;-84
2023/07/26 02:36:25;;;;;;;6.45;4.03;;;15.10;99.90;;;;;;5052946;28;20025;-85
2023/07/26 02:38:50;;;;;;;6.75;3.88;;;15.10;99.90;;;;;;5053234;28;20031;-84
2023/07/26 02:41:16;;;;;;;6.93;3.75;;;15.10;99.90;;;;;;5053049;28;20386;-84
2023/07/26 02:43:42;;;;;;;7.13;3.85;;;15.00;99.90;;;;;;5052861;28;20029;-83
2023/07/26 02:46:08;;;;;;;10.63;4.18;;;15.00;99.90;;;;;;5053968;28;20466;-85
2023/07/26 02:48:34;;;;;;;5.38;3.75;;;15.00;99.90;;;;;;5053981;28;20459;-85
2023/07/26 02:51:00;;;;;;;9.55;4.07;;;15.00;99.90;;;;;;5053847;28;20021;-84
2023/07/26 02:53:25;;;;;;;5.70;3.67;;;15.00;99.90;;;;;;5052715;28;20082;-85
2023/07/26 02:55:51;;;;;;;9.15;3.97;;;15.00;99.90;;;;;;5053636;28;20025;-84
2023/07/26 02:58:17;;;;;;;5.63;3.30;;;15.00;99.90;;;;;;5053803;28;20473;-85
2023/07/26 03:00:42;;;;;;;7.60;3.38;;;14.90;99.90;;;;;;5052731;28;20029;-84
2023/07/26 03:03:08;;;;;;;11.63;3.90;;;14.90;99.90;;;;;;5053240;28;20474;-85
2023/07/26 03:05:36;;;;;;;12.15;3.55;;;14.90;99.90;;;;;;5062739;28;20056;-85
2023/07/26 03:08:02;;;;;;;8.07;3.78;;;14.80;99.90;;;;;;5055947;28;20627;-86
2023/07/26 03:10:27;;;;;;;5.05;3.75;;;14.80;99.90;;;;;;5073650;28;20025;-86
2023/07/26 03:12:54;;;;;;;9.55;4.20;;;14.80;99.90;;;;;;5057120;28;20029;-85
2023/07/26 03:15:20;;;;;;;5.78;3.88;;;14.80;99.90;;;;;;5057477;28;20063;-86
2023/07/26 03:17:45;;;;;;;7.70;3.70;;;14.80;99.90;;;;;;5076224;28;20028;-84
2023/07/26 03:20:11;;;;;;;6.45;3.70;;;14.80;99.90;;;;;;5075280;28;20024;-85
2023/07/26 03:22:37;;;;;;;6.07;4.25;;;14.80;99.90;;;;;;5058568;28;20070;-85
2023/07/26 03:25:03;;;;;;;6.68;3.78;;;14.70;99.90;;;;;;5057333;28;20111;-86
2023/07/26 03:27:28;;;;;;;6.35;3.70;;;14.70;99.90;;;;;;5057935;28;20028;-86
2023/07/26 03:29:54;;;;;;;5.40;3.55;;;14.80;99.90;;;;;;5078239;28;20070;-86
2023/07/26 03:32:20;;;;;;;7.95;3.53;;;14.80;99.90;;;;;;5060735;28;20024;-86
2023/07/26 03:34:45;;;;;;;6.22;3.45;;;14.80;99.90;;;;;;5079064;28;20476;-82
2023/07/26 03:37:11;;;;;;;6.78;3.35;;;14.70;99.90;;;;;;5061056;28;20086;-86
2023/07/26 03:39:37;;;;;;;6.35;3.60;;;14.70;99.90;;;;;;5060208;28;20028;-86
2023/07/26 03:42:02;;;;;;;5.28;3.40;;;14.70;99.90;;;;;;5059429;28;20024;-85
2023/07/26 03:44:28;;;;;;;4.65;3.55;;;14.70;99.90;;;;;;5059527;28;20120;-85
2023/07/26 03:46:53;;;;;;;6.80;3.35;;;14.70;99.90;;;;;;5058828;28;20082;-86
2023/07/26 03:49:19;;;;;;;4.82;3.13;;;14.70;99.90;;;;;;5059781;28;20025;-86
2023/07/26 03:51:45;;;;;;;5.07;3.05;;;14.70;99.90;;;;;;5059294;28;20029;-83
2023/07/26 03:54:10;;;;;;;5.35;3.35;;;14.70;99.90;;;;;;5076796;28;20082;-86
2023/07/26 03:56:36;;;;;;;7.65;3.45;;;14.70;99.90;;;;;;5058933;28;20021;-86
2023/07/26 03:59:02;;;;;;;5.65;3.50;;;14.60;99.90;;;;;;5076959;28;20020;-86
2023/07/26 04:01:27;;;;;;;5.95;3.28;;;14.60;99.90;;;;;;5058983;28;20515;-85
2023/07/26 04:03:53;;;;;;;5.32;3.25;;;14.70;99.90;;;;;;5058482;28;20439;-86
2023/07/26 04:06:18;;;;;;;6.95;3.63;;;14.70;99.90;;;;;;5075825;28;20056;-86
2023/07/26 04:08:44;;;;;;;5.10;3.67;;;14.60;99.90;;;;;;5038819;28;20473;-86
2023/07/26 04:11:11;;;;;;;6.40;3.72;;;14.60;99.90;;;;;;5056210;28;20108;-85
2023/07/26 04:13:37;;;;;;;7.88;3.80;;;14.70;99.90;;;;;;5056908;28;20060;-84
2023/07/26 04:16:18;;;;;;;6.50;4.28;;;14.70;99.90;;;;;;5038534;28;20036;-84
2023/07/26 04:18:44;;;;;;;6.60;4.00;;;14.70;99.90;;;;;;5039096;28;20033;-84
2023/07/26 04:21:20;;;;;;;5.28;4.07;;;14.70;99.90;;;;;;5056190;28;20040;-84
2023/07/26 04:23:46;;;;;;;11.50;4.32;;;14.70;99.90;;;;;;5038634;28;20170;-83
2023/07/26 04:26:12;;;;;;;7.18;4.07;;;14.70;99.90;;;;;;5038314;28;20386;-84
2023/07/26 04:28:39;;;;;;;7.13;4.00;;;14.70;99.90;;;;;;5056462;28;20036;-83
2023/07/26 04:31:04;;;;;;;7.38;4.18;;;14.70;99.90;;;;;;5055776;28;20025;-84
2023/07/26 04:33:30;;;;;;;9.25;4.60;;;14.70;99.90;;;;;;5038719;28;20120;-84
2023/07/26 04:35:57;;;;;;;9.15;4.80;;;14.80;99.90;;;;;;5037861;28;20037;-85
2023/07/26 04:38:23;;;;;;;10.00;5.07;;;14.80;99.90;;;;;;5055952;28;20033;-86
2023/07/26 04:40:49;;;;;;;8.45;5.10;;;14.80;99.90;;;;;;5036759;28;20544;-82
2023/07/26 04:43:19;;;;;;;14.43;5.07;;;14.80;99.90;;;;;;5038498;28;20028;-82
2023/07/26 04:45:50;;;;;;;11.77;5.07;;;14.80;99.90;;;;;;5056036;28;20021;-83
2023/07/26 04:48:16;;;;;;;8.65;5.32;;;14.70;99.90;;;;;;5056078;28;20029;-85
2023/07/26 04:50:43;;;;;;;11.05;5.90;;;14.70;99.90;;;;;;5055891;28;20064;-83
2023/07/26 04:53:09;;;;;;;11.13;5.20;;;14.70;99.90;;;;;;5055614;28;20029;-85
2023/07/26 04:55:41;;;;;;;7.82;4.93;;;14.70;99.90;;;;;;5038421;28;20025;-85
2023/07/26 04:58:07;;;;;;;8.23;5.00;;;14.80;99.90;;;;;;5037448;28;20036;-86
2023/07/26 05:00:33;;;;;;;8.30;4.75;;;14.80;99.90;;;;;;5055932;28;20059;-85
2023/07/26 05:02:58;;;;;;;8.30;5.15;;;14.80;99.90;;;;;;5037319;28;20021;-84
2023/07/26 05:05:24;;;;;;;8.13;4.93;;;14.80;99.90;;;;;;5034417;28;20057;-85
2023/07/26 05:07:49;;;;;;;5.38;4.60;;;14.80;99.90;;;;;;5034366;28;20032;-81
2023/07/26 05:10:15;;;;;;;7.80;5.25;;;14.80;99.90;;;;;;5034176;28;20033;-84
2023/07/26 05:12:40;;;;;;;10.45;5.30;;;14.90;99.90;;;;;;5035441;28;20025;-84
2023/07/26 05:15:07;;;;;;;7.93;4.88;;;14.90;99.90;;;;;;5034084;28;20553;-83
2023/07/26 05:17:32;;;;;;;8.40;4.78;;;14.90;99.90;;;;;;5034689;28;20025;-83
2023/07/26 05:19:59;;;;;;;6.40;4.88;;;14.90;99.90;;;;;;5033554;28;20079;-83
2023/07/26 05:22:24;;;;;;;10.68;5.15;;;14.90;99.90;;;;;;5034118;28;20037;-86
2023/07/26 05:24:50;;;;;;;8.75;4.82;;;15.00;99.90;;;;;;5034856;28;20037;-83
2023/07/26 05:27:15;;;;;;;8.73;4.85;;;15.00;99.90;;;;;;5034594;28;20025;-84
2023/07/26 05:29:41;;;;;;;6.78;4.28;;;15.00;99.90;;;;;;5033928;28;20111;-83
2023/07/26 05:32:07;;;;;;;8.07;4.63;;;15.00;99.90;;;;;;5033340;28;20116;-84
2023/07/26 05:34:33;;;;;;;7.55;4.38;;;15.10;99.90;;;;;;5033967;28;20084;-84
2023/07/26 05:36:58;;;;;;;5.30;4.32;;;15.10;99.90;;;;;;5034262;28;20025;-84
2023/07/26 05:39:24;;;;;;;6.93;4.18;;;15.20;99.90;;;;;;5033990;28;20076;-84
2023/07/26 05:41:49;;;;;;;7.22;4.63;;;15.20;99.90;;;;;;5033688;28;20029;-84
2023/07/26 05:44:15;;;;;;;6.93;3.80;;;15.20;99.90;;;;;;5034482;28;20036;-85
2023/07/26 05:46:41;;;;;;;8.00;4.45;;;15.30;99.90;;;;;;5034690;28;20032;-84
2023/07/26 05:49:06;;;;;;;7.07;4.28;;;15.30;99.90;;;;;;5034563;28;20084;-84
2023/07/26 05:51:32;;;;;;;8.32;4.15;;;15.40;99.90;;;;;;5033354;28;20493;-84
2023/07/26 05:53:57;;;;;;;5.00;3.42;;;15.50;99.90;;;;;;5033250;28;20059;-84
2023/07/26 05:56:23;;;;;;;6.90;3.65;;;15.50;99.90;;;;;;5033824;28;20029;-87
2023/07/26 05:58:48;;;;;;;6.90;3.97;;;15.50;99.90;;;;;;5033954;28;20032;-85
2023/07/26 06:01:14;;;;;;;6.72;3.67;;;15.50;99.90;;;;;;5034291;28;20021;-82
2023/07/26 06:03:39;;;;;;;6.70;3.65;;;15.50;99.90;;;;;;5033653;28;20030;-84
2023/07/26 06:06:05;;;;;;;7.75;3.63;;;15.60;99.90;;;;;;5032573;28;20046;-86
2023/07/26 06:08:32;;;;;;;6.90;3.30;;;15.50;99.90;;;;;;5033321;28;20052;-86
2023/07/26 06:10:57;;;;;;;5.35;3.20;;;15.50;99.90;;;;;;5033200;28;20036;-85
2023/07/26 06:13:23;;;;;;;6.35;2.92;;;15.50;99.90;;;;;;5033556;28;20025;-84
2023/07/26 06:15:48;;;;;;;8.00;3.50;;;15.50;99.90;;;;;;5034358;28;20028;-85
2023/07/26 06:18:14;;;;;;;8.13;3.30;;;15.50;99.90;;;;;;5033181;28;20013;-85
2023/07/26 06:20:39;;;;;;;6.28;3.40;;;15.50;99.90;;;;;;5033711;28;20061;-85
2023/07/26 06:23:06;;;;;;;5.53;3.05;;;15.50;99.90;;;;;;5034013;28;20026;-85
2023/07/26 06:25:32;;;;;;;4.43;3.25;;;15.50;99.90;;;;;;5033001;28;20033;-85
2023/07/26 06:27:58;;;;;;;5.38;3.17;;;15.50;99.90;;;;;;5032906;28;20029;-84
2023/07/26 06:30:23;;;;;;;5.00;3.05;;;15.60;99.90;;;;;;5034114;28;20064;-85
2023/07/26 06:32:50;;;;;;;5.95;2.97;;;15.60;99.90;;;;;;5032931;28;20041;-84
2023/07/26 06:35:15;;;;;;;4.07;3.05;;;15.70;99.90;;;;;;5033441;28;20155;-85
2023/07/26 06:37:41;;;;;;;5.47;3.13;;;15.60;99.90;;;;;;5032765;28;20071;-85
2023/07/26 06:40:07;;;;;;;6.05;2.88;;;15.70;99.90;;;;;;5032645;28;20033;-85
2023/07/26 06:42:33;;;;;;;5.35;2.92;;;15.60;99.90;;;;;;5033207;28;20022;-86
2023/07/26 06:44:58;;;;;;;5.25;2.83;;;15.70;99.90;;;;;;5032447;28;20099;-85
2023/07/26 06:47:24;;;;;;;6.15;3.13;;;15.70;99.90;;;;;;5033835;28;20100;-84
2023/07/26 06:49:50;;;;;;;4.10;2.80;;;15.70;99.90;;;;;;5032961;28;20116;-84
2023/07/26 06:52:16;;;;;;;4.90;3.05;;;15.70;99.90;;;;;;5032637;28;20025;-84
2023/07/26 06:54:41;;;;;;;5.88;3.00;;;15.70;99.90;;;;;;5032864;28;20501;-84
2023/07/26 06:57:09;;;;;;;6.38;3.20;;;15.80;99.90;;;;;;5033337;28;20026;-84
2023/07/26 06:59:36;;;;;;;8.68;3.13;;;15.70;99.90;;;;;;5033222;28;20132;-86
2023/07/26 07:02:04;;;;;;;5.55;2.88;;;15.70;99.90;;;;;;5031189;28;20120;-83
2023/07/26 07:04:30;;;;;;;7.35;2.92;;;15.80;99.90;;;;;;5024846;28;20088;-81
2023/07/26 07:06:56;;;;;;;3.38;2.90;;;15.80;99.90;;;;;;5039095;28;20033;-82
2023/07/26 07:09:21;;;;;;;5.55;2.90;;;15.80;99.90;;;;;;5039727;28;20025;-81
2023/07/26 07:11:47;;;;;;;6.72;2.92;;;15.90;99.90;;;;;;5039660;28;20075;-82
2023/07/26 07:14:13;;;;;;;5.65;2.58;;;15.90;99.90;;;;;;5056747;28;20059;-82
2023/07/26 07:16:39;;;;;;;6.97;2.75;;;16.00;99.90;;;;;;5039340;28;20059;-82
2023/07/26 07:19:05;;;;;;;3.22;2.72;;;16.00;99.90;;;;;;5056564;28;20029;-81
2023/07/26 07:21:30;;;;;;;5.32;2.85;;;16.00;99.90;;;;;;5039110;28;20017;-83
2023/07/26 07:23:56;;;;;;;5.07;2.53;;;16.10;99.90;;;;;;5056813;28;20036;-83
2023/07/26 07:26:21;;;;;;;7.05;2.97;;;16.00;99.90;;;;;;5057004;28;20071;-83
2023/07/26 07:28:47;;;;;;;3.80;2.40;;;16.10;99.90;;;;;;5056723;28;20025;-83
2023/07/26 07:31:12;;;;;;;4.05;2.58;;;16.10;99.90;;;;;;5037782;28;20385;-82
2023/07/26 07:33:38;;;;;;;4.25;2.63;;;16.00;99.90;;;;;;5038707;28;20084;-82
2023/07/26 07:36:04;;;;;;;3.88;2.60;;;16.00;99.90;;;;;;5038273;28;20036;-83
2023/07/26 07:38:31;;;;;;;7.95;3.97;;;16.10;99.90;;;;;;5056519;28;20025;-82
2023/07/26 07:40:56;;;;;;;5.15;2.70;;;16.10;99.90;;;;;;5034948;28;20028;-82
2023/07/26 07:43:22;;;;;;;5.57;2.70;;;16.20;99.90;;;;;;5038974;28;20100;-83
2023/07/26 07:45:48;;;;;;;5.53;3.08;;;16.20;99.90;;;;;;5039069;28;20036;-83
2023/07/26 07:48:13;;;;;;;5.72;2.40;;;16.20;99.90;;;;;;5037881;28;20033;-83
2023/07/26 07:50:39;;;;;;;7.80;2.70;;;16.40;99.90;;;;;;5056278;28;20032;-83
2023/07/26 07:53:04;;;;;;;4.80;2.50;;;16.50;99.90;;;;;;5055658;28;20101;-83
2023/07/26 07:55:31;;;;;;;4.85;2.30;;;16.50;99.90;;;;;;5035397;28;20025;-82
2023/07/26 07:57:59;;;;;;;3.97;2.47;;;16.50;99.90;;;;;;5038558;28;20017;-85
2023/07/26 08:00:25;;;;;;;4.10;2.45;;;16.60;99.90;;;;;;5056291;28;20052;-87
2023/07/26 08:02:50;;;;;;;4.40;2.20;;;16.60;99.90;;;;;;5038785;28;20535;-85
2023/07/26 08:05:16;;;;;;;5.28;2.63;;;16.60;99.90;;;;;;5053942;28;20056;-85
2023/07/26 08:07:41;;;;;;;4.43;2.40;;;16.60;99.90;;;;;;5038958;28;20059;-87
2023/07/26 08:10:07;;;;;;;5.65;2.75;;;16.60;99.90;;;;;;5055762;28;20489;-85
2023/07/26 08:12:35;;;;;;;5.43;2.35;;;16.60;99.90;;;;;;5034743;28;20172;-86
2023/07/26 08:15:01;;;;;;;3.72;2.38;;;16.70;99.90;;;;;;5036445;28;20052;-85
2023/07/26 08:17:26;;;;;;;9.63;2.72;;;16.70;99.90;;;;;;5055868;28;20052;-85
2023/07/26 08:19:52;;;;;;;6.20;2.72;;;16.70;99.90;;;;;;5034848;28;20022;-87
2023/07/26 08:22:17;;;;;;;3.75;2.50;;;16.70;99.90;;;;;;5037638;28;20025;-87
2023/07/26 08:24:43;;;;;;;4.22;2.58;;;16.70;99.90;;;;;;5055987;28;20041;-85
2023/07/26 08:27:08;;;;;;;7.80;3.28;;;16.70;99.90;;;;;;5055473;28;20060;-86
2023/07/26 08:29:34;;;;;;;3.20;2.05;;;16.70;99.90;;;;;;5038579;28;20413;-86
2023/07/26 08:32:00;;;;;;;2.92;2.28;;;16.60;99.90;;;;;;5037107;28;20078;-86
2023/07/26 08:34:25;;;;;;;6.10;2.58;;;16.70;99.90;;;;;;5037804;28;20052;-86
2023/07/26 08:36:51;;;;;;;4.53;2.60;;;16.70;99.90;;;;;;5038978;28;20078;-85
2023/07/26 08:39:16;;;;;;;3.53;2.50;;;16.70;99.90;;;;;;5038460;28;20028;-86
2023/07/26 08:41:42;;;;;;;5.95;2.33;;;16.80;99.90;;;;;;5057016;28;20021;-85
2023/07/26 08:44:09;;;;;;;2.90;2.20;;;16.80;99.90;;;;;;5037379;28;20471;-85
2023/07/26 08:46:39;;;;;;;3.55;2.28;;;16.70;99.90;;;;;;5034498;28;20379;-85
2023/07/26 08:49:06;;;;;;;4.55;2.45;;;16.80;99.90;;;;;;5056082;28;20029;-85
2023/07/26 08:51:32;;;;;;;3.72;2.42;;;16.80;99.90;;;;;;5040807;28;20074;-85
2023/07/26 08:53:58;;;;;;;4.35;3.08;;;16.80;99.90;;;;;;5041263;28;20025;-84
2023/07/26 08:56:28;;;;;;;3.45;2.40;;;16.90;99.90;;;;;;5041014;28;20029;-86
2023/07/26 08:58:54;;;;;;;3.13;2.47;;;16.90;99.90;;;;;;5054183;28;20033;-84
2023/07/26 09:01:21;;;;;;;3.38;2.53;;;17.10;99.90;;;;;;5057585;28;20056;-86
2023/07/26 09:03:47;;;;;;;4.13;2.67;;;17.10;99.90;;;;;;5062665;28;20064;-86
2023/07/26 09:06:12;;;;;;;4.63;2.25;;;17.20;99.90;;;;;;5041602;28;20053;-87
2023/07/26 09:08:38;;;;;;;5.07;2.55;;;17.20;99.90;;;;;;5043876;28;20025;-85
2023/07/26 09:11:24;;;;;;;3.20;2.28;;;17.30;99.90;;;;;;5061555;28;20055;-86
2023/07/26 09:13:54;;;;;;;2.78;2.20;;;17.50;99.90;;;;;;5043828;28;20025;-87
2023/07/26 09:16:20;;;;;;;3.50;2.22;;;17.60;99.90;;;;;;5060021;28;20028;-85
2023/07/26 09:18:59;;;;;;;2.40;1.98;;;17.60;99.90;;;;;;5041131;28;20033;-86
2023/07/26 09:21:32;;;;;;;4.57;1.95;;;17.60;99.90;;;;;;5042360;28;20021;-85
2023/07/26 09:23:59;;;;;;;3.45;2.00;;;17.70;99.90;;;;;;5056735;28;20043;-86
2023/07/26 09:26:42;;;;;;;4.30;2.00;;;17.60;99.90;;;;;;5058389;28;20052;-87
2023/07/26 09:29:09;;;;;;;4.78;2.13;;;17.70;99.90;;;;;;5055242;28;20469;-86
2023/07/26 09:31:35;;;;;;;4.00;2.10;;;17.80;99.90;;;;;;5055506;28;20481;-85
2023/07/26 09:34:06;;;;;;;3.03;2.20;;;17.80;99.90;;;;;;5057414;28;20031;-86
2023/07/26 09:36:45;;;;;;;5.15;2.78;;;17.90;99.90;;;;;;5054706;28;20021;-86
2023/07/26 09:39:12;;;;;;;3.97;2.30;;;17.90;99.90;;;;;;5036450;28;20037;-86
2023/07/26 09:41:38;;;;;;;3.20;2.05;;;17.90;99.90;;;;;;5053790;28;20458;-87
2023/07/26 09:44:17;;;;;;;4.10;2.40;;;18.00;99.90;;;;;;5039770;28;20077;-85
2023/07/26 09:46:50;;;;;;;5.38;2.60;;;18.00;99.90;;;;;;5054953;28;20031;-84
2023/07/26 09:49:22;;;;;;;5.13;2.33;;;18.00;99.90;;;;;;5038955;28;20021;-84
2023/07/26 09:51:48;;;;;;;3.75;2.35;;;18.00;99.90;;;;;;5055217;28;20020;-86
2023/07/26 09:54:14;;;;;;;4.07;2.22;;;17.90;99.90;;;;;;5036460;28;20041;-84
2023/07/26 09:56:41;;;;;;;4.90;2.40;;;17.90;99.90;;;;;;5054115;28;20021;-85
2023/07/26 09:59:11;;;;;;;3.53;2.63;;;18.00;99.90;;;;;;5035852;28;20122;-85
2023/07/26 10:01:45;;;;;;;5.30;2.00;;;18.10;99.90;;;;;;5037290;28;20021;-83
2023/07/26 10:04:40;;;;;;;4.18;2.10;;;18.20;99.90;;;;;;5035380;28;20057;-87
2023/07/26 10:07:10;;;;;;;3.65;2.17;;;18.20;99.90;;;;;;5042585;28;20060;-86
2023/07/26 10:09:43;;;;;;;4.53;2.53;;;18.20;99.90;;;;;;5037983;28;20466;-87
2023/07/26 10:12:09;;;;;;;3.75;2.05;;;18.40;99.90;;;;;;5038313;28;20029;-86
2023/07/26 10:14:36;;;;;;;4.10;1.92;;;18.40;99.90;;;;;;5038238;28;20040;-86
2023/07/26 10:17:04;;;;;;;3.35;1.80;;;18.50;99.90;;;;;;5039130;28;20039;-86
2023/07/26 10:19:30;;;;;;;5.43;1.95;;;18.60;99.90;;;;;;5056333;28;20081;-86
2023/07/26 10:21:59;;;;;;;2.85;1.70;;;18.70;99.90;;;;;;5055331;28;20033;-87
2023/07/26 10:24:26;;;;;;;2.28;1.77;;;18.70;99.90;;;;;;5055284;28;20098;-86
2023/07/26 10:26:53;;;;;;;3.25;1.60;;;18.80;99.90;;;;;;5037154;28;20021;-86
2023/07/26 10:29:20;;;;;;;4.70;1.80;;;18.90;99.90;;;;;;5054600;28;20021;-87
2023/07/26 10:31:47;;;;;;;2.72;1.52;;;18.90;99.90;;;;;;5055726;28;20017;-87
2023/07/26 10:34:24;;;;;;;3.03;1.70;;;19.00;99.90;;;;;;5055909;28;20087;-87
2023/07/26 10:36:50;;;;;;;3.00;1.48;;;19.00;99.90;;;;;;5039624;28;20097;-87
2023/07/26 10:39:15;;;;;;;1.70;1.27;;;19.00;99.90;;;;;;5041390;28;20087;-84
2023/07/26 10:41:50;;;;;;;3.83;1.30;;;19.00;99.90;;;;;;5043130;28;20025;-86
2023/07/26 10:44:16;;;;;;;2.22;1.30;;;19.00;99.90;;;;;;5041149;28;20037;-86
2023/07/26 10:46:52;;;;;;;2.28;1.60;;;19.00;99.90;;;;;;5058787;28;20083;-86
2023/07/26 10:49:27;;;;;;;4.13;1.80;;;19.00;99.90;;;;;;5041271;28;20033;-86
2023/07/26 10:51:57;;;;;;;2.15;1.38;;;19.10;99.90;;;;;;5041363;28;20036;-86
2023/07/26 10:54:39;;;;;;;2.67;1.60;;;19.00;99.90;;;;;;5040565;28;20075;-85
2023/07/26 10:57:18;;;;;;;2.67;1.60;;;19.10;99.90;;;;;;5040578;28;20025;-85
2023/07/26 11:00:10;;;;;;;3.67;1.65;;;19.20;99.90;;;;;;5041404;28;20424;-86
2023/07/26 11:02:44;;;;;;;6.38;1.58;;;19.30;99.90;;;;;;5033431;28;20056;-86
2023/07/26 11:05:21;;;;;;;2.05;1.27;;;19.50;99.90;;;;;;5042114;28;20060;-86
2023/07/26 11:08:01;;;;;;;3.38;1.48;;;19.60;99.90;;;;;;5060113;28;20508;-86
2023/07/26 11:10:32;;;;;;;2.63;1.48;;;19.50;99.90;;;;;;5042132;28;20025;-85
2023/07/26 11:13:10;;;;;;;1.90;1.20;;;19.50;99.90;;;;;;5042092;28;20428;-86
2023/07/26 11:15:41;;;;;;;1.83;1.25;;;19.50;99.90;;;;;;5059439;28;20052;-87
2023/07/26 11:18:08;;;;;;;3.28;1.30;;;19.30;99.90;;;;;;5040865;28;20043;-86
2023/07/26 11:20:43;;;;;;;3.63;1.30;;;19.30;99.90;;;;;;5059273;28;20029;-86
2023/07/26 11:23:26;;;;;;;4.68;1.60;;;19.20;99.90;;;;;;5041263;28;20029;-86
2023/07/26 11:26:01;;;;;;;6.07;1.70;;;19.10;99.90;;;;;;5058522;28;20033;-87
2023/07/26 11:28:34;;;;;;;2.65;1.50;;;19.20;99.90;;;;;;5040300;28;20021;-87
2023/07/26 11:31:00;;;;;;;3.60;1.48;;;19.40;99.90;;;;;;5041124;28;20025;-85
2023/07/26 11:33:30;;;;;;;5.28;1.50;;;19.40;99.90;;;;;;5058081;28;20086;-86
2023/07/26 11:35:57;;;;;;;4.15;1.40;;;19.60;99.90;;;;;;5039840;28;20037;-86
2023/07/26 11:38:23;;;;;;;2.42;1.60;;;19.70;99.90;;;;;;5039489;28;20374;-85
2023/07/26 11:40:50;;;;;;;3.47;1.65;;;19.70;99.90;;;;;;5039238;28;20025;-85
2023/07/26 11:43:16;;;;;;;6.45;1.88;;;19.60;99.90;;;;;;5056637;28;20029;-85
2023/07/26 11:45:43;;;;;;;3.38;1.63;;;19.60;99.90;;;;;;5039398;28;20041;-84
2023/07/26 11:48:10;;;;;;;4.05;1.40;;;19.70;99.90;;;;;;5039149;28;20075;-84
2023/07/26 11:50:36;;;;;;;2.67;1.70;;;20.00;99.90;;;;;;5038973;28;20083;-84
2023/07/26 11:53:11;;;;;;;3.10;1.58;;;20.10;99.90;;;;;;5057222;28;20078;-82
2023/07/26 11:55:39;;;;;;;3.92;2.25;;;20.10;99.90;;;;;;5039356;28;20033;-85
2023/07/26 11:58:08;;;;;;;3.97;2.63;;;20.00;99.90;;;;;;5038775;28;20112;-85
2023/07/26 12:00:36;;;;;;;2.25;1.48;;;20.10;99.90;;;;;;5038991;28;20124;-87
2023/07/26 12:03:03;;;;;;;4.82;1.40;;;20.20;99.90;;;;;;5038647;28;20112;-87
2023/07/26 12:05:30;;;;;;;2.78;1.35;;;20.30;99.00;;;;;;5038599;28;20049;-87
2023/07/26 12:07:58;;;;;;;2.33;1.15;;;20.50;97.80;;;;;;5038744;28;20025;-87
2023/07/26 12:10:38;;;;;;;2.20;1.30;;;20.50;98.10;;;;;;5056173;28;20024;-88
2023/07/26 12:13:08;;;;;;;2.40;1.30;;;20.70;97.40;;;;;;5038650;28;20067;-83
2023/07/26 12:15:55;;;;;;;3.55;1.42;;;20.60;97.20;;;;;;5038989;28;20508;-87
2023/07/26 12:18:23;;;;;;;5.55;1.48;;;20.40;96.50;;;;;;5056008;28;20025;-87
2023/07/26 12:21:03;;;;;;;1.75;1.10;;;20.10;97.20;;;;;;5039004;28;20029;-87
2023/07/26 12:23:51;;;;;;;4.27;1.33;;;20.00;97.40;;;;;;5055748;28;20035;-87
2023/07/26 12:26:19;;;;;;;3.47;1.88;;;20.00;98.70;;;;;;5038188;28;20071;-87
2023/07/26 12:28:45;;;;;;;3.95;1.52;;;19.90;98.90;;;;;;5038655;28;20082;-87
2023/07/26 12:31:21;;;;;;;3.90;1.40;;;19.80;99.50;;;;;;5038272;28;20116;-86
2023/07/26 12:34:10;;;;;;;2.05;1.33;;;19.70;99.40;;;;;;5038259;28;20492;-87
2023/07/26 12:36:44;;;;;;;3.30;1.63;;;19.70;99.90;;;;;;5056290;28;20129;-87
2023/07/26 12:39:14;;;;;;;4.40;1.45;;;19.60;99.70;;;;;;5055600;28;20025;-85
2023/07/26 12:41:41;;;;;;;2.78;1.67;;;19.80;99.50;;;;;;5056078;28;20032;-86
2023/07/26 12:44:07;;;;;;;2.20;1.27;;;20.10;99.10;;;;;;5037478;28;20033;-86
2023/07/26 12:46:38;;;;;;;2.35;1.80;;;20.30;98.40;;;;;;5038441;28;20112;-86
2023/07/26 12:49:06;;;;;;;3.72;1.42;;;20.40;97.80;;;;;;5055616;28;20029;-86